Aviation Digital Data Service (ADDS)

Output produced by METARs form (2158 UTC 23 March 2017)
found at http://aviationweather.gov/adds/metars/
 
KARA 232153Z 19012KT 10SM CLR 29/08 A3013 RMK AO2 SLP201 T02890083